Tiempo atmosférico en la estación meteorológica de Garrucha, Puerto, Almería (12 m.)



Fecha
DESCASC
Temp. máxima en grados centígrados (hora)
DESCASC
Temp. mínima en grados centígrados (hora)
DESCASC
Temp. media en grados centígrados
DESCASC
Racha de viento máxima en m/sg (hora)
DESCASC
Velocidad máxima media en intervalos de 10 minutos(hora)
DESCASC
Precipitaciones diarias en mm
DESCASC
Precipitaciones de 00:00 a 06:00 en mm
DESCASC
Precipitaciones de 06:00 a 12:00 en mm
DESCASC
Precipitaciones de 12:00 a 18:00 en mm
DESCASC
Precipitaciones de 18:00 a 24:00 en mm
DESCASC
19-09-2019 26.6 (12:10) 20.6 (06:30) 23.6 5.56 (15:00) 4.72 (15:20) 0 0 0 0 0
18-09-2019 25.6 (13:20) 20.8 (07:20) 23.2 7.5 (15:50) 6.94 (15:50) 0 0 0 0 0
17-09-2019 26.5 (18:10) 21.7 (00:00) 24.1 10.56 (14:00) 8.33 (14:10) 0 0 0 0 0
16-09-2019 26.6 (11:10) 21.7 (00:00) 24.2 5.83 (14:30) 5 (14:30) 0 0 0 0 0
15-09-2019 26.8 (13:30) 21.4 (00:00) 24.1 8.89 (15:50) 6.94 (15:50) 0 0 0 0 0
14-09-2019 25.2 (18:10) 18.3 (00:00) 21.8 18.89 (03:20) 8.06 (03:20) 3.4 3.4 0 0 0
13-09-2019 25.3 (18:20) 18.2 (00:00) 21.8 16.94 (00:20) 13.33 (00:20) 27.8 7.8 20 0 0
12-09-2019 24 (14:20) 17.4 (00:00) 20.7 18.61 (22:20) 13.89 (22:10) 3 0.4 0.8 1.8 0
11-09-2019 24.5 (00:00) 18.4 (00:00) 21.4 15.83 (17:20) 11.94 (17:40) 12.2 0 0 1.4 10.8
10-09-2019 29.7 (18:30) 22.8 (05:40) 26.3 17.5 (13:10) 12.22 (12:20) 0 0 0 0 0
09-09-2019 27.2 (18:50) 22.1 (07:50) 24.7 13.61 (15:50) 11.94 (15:50) 0 0 0 0 0
08-09-2019 27 (14:10) 22.2 (00:00) 24.6 9.72 (11:40) 8.06 (16:10) 0 0 0 0 0
07-09-2019 26.8 (14:40) 22.7 (00:00) 24.8 14.44 (20:10) 12.22 (20:10) 0 0 0 0 0
06-09-2019 27.4 (11:40) 22.7 (00:00) 25.1 8.89 (23:50) 6.67 (23:00) 0 0 0 0 0
05-09-2019 28 (14:50) 24.8 (00:00) 26.4 7.5 (14:20) 5.83 (16:00) 0 0 0 0 0
04-09-2019 27.7 (10:50) 23.6 (00:00) 25.7 8.33 (17:20) 7.22 (15:30) 0 0 0 0 0
03-09-2019 28.8 (11:20) 23 (00:00) 25.9 9.44 (14:50) 8.33 (15:00) 0 0 0 0 0
02-09-2019 29.8 (18:20) 23.8 (00:00) 26.8 8.33 (15:10) 7.22 (15:10) 0 0 0 0 0
01-09-2019 27.1 (10:30) 22.3 (00:00) 24.7 13.61 (17:10) 12.22 (17:10) 0 0 0 0 0
31-08-2019 28.8 (10:30) 22.4 (00:00) 25.6 10.28 (16:30) 9.44 (16:30) 0 0 0 0 0
30-08-2019 28.2 (11:10) 22.5 (00:00) 25.4 7.5 (14:50) 6.67 (14:50) 0 0 0 0 0
29-08-2019 28.1 (12:40) 22.1 (00:00) 25.1 7.5 (16:50) 6.39 (17:00) 0 0 0 0 0
28-08-2019 27.4 (10:50) 21.8 (00:00) 24.6 11.39 (15:20) 10 (14:30) 0 0 0 0 0
27-08-2019 27.9 (12:00) 22.8 (00:00) 25.3 12.78 (15:10) 10.83 (19:10) 0.2 0.2 0 0 0
26-08-2019 28 (15:30) 24.3 (00:00) 26.1 12.78 (18:50) 11.11 (18:50) 0 0 0 0 0
25-08-2019 28.3 (12:00) 22 (00:00) 25.1 8.61 (17:20) 7.5 (17:20) 0 0 0 0 0
24-08-2019 27.8 (19:40) 21.5 (00:00) 24.6 7.5 (14:00) 6.11 (14:00) 0 0 0 0 0
23-08-2019 28.3 (13:40) 21.1 (00:00) 24.7 10.83 (15:30) 9.44 (15:30) 0 0 0 0 0

Gráficas

Temp. máximas Temp. mínimas Temp. medias Precipitaciones Rachas de viento máximas Velocidades máximas media en intervalos de 10 minutos

Datos horarios

Fecha y hora oficial Temperatura (ºC) Velocidad del viento (km/h) Dirección del viento Racha (km/h) Dirección de racha Precipitación (mm) Presión (hPa) Tendencia (hPa) Humedad (%)
2019-09-21 23:00:00 24.4 2 Noroeste 13 Norte 0 -- -- 88
2019-09-21 22:00:00 24.9 10 Nordeste 14 Norte 0 -- -- 90
2019-09-21 21:00:00 24.8 10 Norte 14 Norte 0 -- -- 89
2019-09-21 20:00:00 26.1 3 Nordeste 10 Sur 0 -- -- 79
2019-09-21 19:00:00 25.9 8 Sur 33 Sur 0 -- -- 77
2019-09-21 18:00:00 24.5 30 Sur 36 Sur 0 -- -- 90
2019-09-21 17:00:00 24.4 31 Sudeste 35 Sudeste 0 -- -- 90
2019-09-21 16:00:00 24.6 26 Sudeste 29 Sudeste 0 -- -- 87
2019-09-21 15:00:00 24.9 16 Sudeste 20 Sudeste 0 -- -- 82
2019-09-21 14:00:00 25 13 Sudeste 17 Sudeste 0 -- -- 80
2019-09-21 13:00:00 25.6 12 Sudeste 14 Este 0 -- -- 77
2019-09-21 12:00:00 26.3 4 Este 8 Este 0 -- -- 72
2019-09-21 11:00:00 26 3 Norte 6 Nordeste 0 -- -- 76
2019-09-21 10:00:00 24 3 Norte 10 Noroeste 0 -- -- 82
2019-09-21 09:00:00 22.9 8 Noroeste 12 Oeste 0 -- -- 86
2019-09-21 08:00:00 22.7 7 Oeste 12 Oeste 0 -- -- 87
2019-09-21 07:00:00 22.7 9 Oeste 13 Oeste 0 -- -- 86
2019-09-21 06:00:00 22.7 10 Noroeste 17 Oeste 0 -- -- 86
2019-09-21 05:00:00 22.7 9 Noroeste 15 Oeste 0 -- -- 88
2019-09-21 04:00:00 23.3 7 Noroeste 14 Noroeste 0 -- -- 85
2019-09-21 03:00:00 23.3 6 Noroeste 19 Noroeste 0 -- -- 85
2019-09-21 02:00:00 23.5 9 Noroeste 14 Noroeste 0 -- -- 85
2019-09-21 01:00:00 23.9 9 Noroeste 12 Noroeste 0 -- -- 86
2019-09-21 00:00:00 24.4 5 Nordeste 17 Norte 0 -- -- 84
2019-09-20 23:00:00 24.4 11 Norte 24 Nordeste 0 -- -- 87
2019-09-20 22:00:00 24.8 17 Nordeste 33 Nordeste 0 -- -- 86
2019-09-20 21:00:00 24.6 24 Nordeste 33 Nordeste 0 -- -- 88
2019-09-20 20:00:00 24.7 20 Nordeste 29 Nordeste 0 -- -- 89
2019-09-20 19:00:00 25 23 Nordeste 31 Nordeste 0 -- -- 88
2019-09-20 18:00:00 25.2 19 Nordeste 26 Nordeste 0 -- -- 84
2019-09-20 17:00:00 25.2 19 Nordeste 26 Nordeste 0 -- -- 86
2019-09-20 16:00:00 25.5 15 Nordeste 34 Norte 0 -- -- 85
2019-09-20 15:00:00 25.3 22 Nordeste 31 Nordeste 0 -- -- 87
2019-09-20 14:00:00 25.2 18 Nordeste 26 Nordeste 0 -- -- 86
2019-09-20 13:00:00 25.1 16 Nordeste 22 Nordeste 0 -- -- 84
2019-09-20 12:00:00 25 15 Nordeste 25 Nordeste 0 -- -- 84
2019-09-20 11:00:00 24.6 9 Norte 18 Norte 0 -- -- 78
2019-09-20 10:00:00 23.6 10 Norte 22 Norte 0 -- -- 81
2019-09-20 09:00:00 22.2 11 Noroeste 21 Noroeste 0 -- -- 89
2019-09-20 08:00:00 21.9 12 Noroeste 19 Noroeste 0 -- -- 87
2019-09-20 07:00:00 22.4 13 Norte 24 Norte 0 -- -- 86
2019-09-20 06:00:00 22.6 13 Norte 19 Norte 0 -- -- 88
2019-09-20 05:00:00 23 5 Norte 8 Norte 0 -- -- 90
2019-09-20 04:00:00 23 5 Noroeste 10 Noroeste 0 -- -- 91
2019-09-20 03:00:00 23 7 Noroeste 9 Noroeste 0 -- -- 90
2019-09-20 02:00:00 23.4 3 Norte 8 Noroeste 0 -- -- 89
2019-09-20 01:00:00 23.6 4 Norte 10 Norte 0 -- -- 89
2019-09-20 00:00:00 23.9 6 Norte 11 Noroeste 0 -- -- 88
2019-09-19 23:00:00 24.2 6 Norte 11 Nordeste 0 -- -- 87
2019-09-19 22:00:00 24.2 6 Nordeste 12 Nordeste 0 -- -- 87
2019-09-19 21:00:00 24.3 6 Nordeste 9 Nordeste 0 -- -- 86
2019-09-19 20:00:00 24.5 8 Este 13 Este 0 -- -- 86
2019-09-19 19:00:00 24.7 11 Este 15 Este 0 -- -- 86
2019-09-19 18:00:00 25.4 12 Este 15 Este 0 -- -- 83
2019-09-19 17:00:00 25.4 13 Sudeste 18 Este 0 -- -- 83
2019-09-19 16:00:00 24.8 15 Este 19 Este 0 -- -- 85
2019-09-19 15:00:00 26.2 15 Nordeste 20 Nordeste 0 -- -- 80
2019-09-19 14:00:00 26 14 Nordeste 17 Este 0 -- -- 82
2019-09-19 13:00:00 26.3 11 Nordeste 14 Nordeste 0 -- -- 81
2019-09-19 12:00:00 26.4 9 Nordeste 13 Nordeste 0 -- -- 81
2019-09-19 11:00:00 25.1 4 Norte 6 Nordeste 0 -- -- 83
2019-09-19 10:00:00 23.3 6 Oeste 10 Oeste 0 -- -- 83
2019-09-19 09:00:00 21.7 6 Oeste 9 Oeste 0 -- -- 86
2019-09-19 08:00:00 21 6 Noroeste 14 Oeste 0 -- -- 88
2019-09-19 07:00:00 20.6 8 Noroeste 14 Noroeste 0 -- -- 90
2019-09-19 06:00:00 21 12 Noroeste 18 Oeste 0 -- -- 88
2019-09-19 05:00:00 22 12 Oeste 17 Oeste 0 -- -- 85
2019-09-19 04:00:00 21.8 8 Oeste 12 Noroeste 0 -- -- 87
2019-09-19 03:00:00 22.1 8 Oeste 13 Oeste 0 -- -- 86
2019-09-19 02:00:00 23 9 Oeste 11 Oeste 0 -- -- 83
2019-09-19 01:00:00 23.1 4 Oeste 10 Oeste 0 -- -- 82
2019-09-19 00:00:00 23.3 8 Noroeste 10 Noroeste 0 -- -- 83
2019-09-18 23:00:00 23.8 4 Sudoeste 9 Sudoeste 0 -- -- 84
2019-09-18 22:00:00 24.4 5 Nordeste 11 Nordeste 0 -- -- 87
2019-09-18 21:00:00 25.3 8 Sur 17 Sudeste 0 -- -- 81
2019-09-18 20:00:00 25.2 15 Sudeste 19 Sudeste 0 -- -- 81
2019-09-18 19:00:00 25.4 17 Sudeste 22 Sudeste 0 -- -- 82
2019-09-18 18:00:00 25.1 19 Sudeste 22 Sudeste 0 -- -- 85
2019-09-18 17:00:00 25 21 Sudeste 26 Sudeste 0 -- -- 86
2019-09-18 16:00:00 24.9 24 Sudeste 27 Sudeste 0 -- -- 88
2019-09-18 15:00:00 24.9 21 Sudeste 25 Sudeste 0 -- -- 86
2019-09-18 14:00:00 25.1 15 Sudeste 17 Sudeste 0 -- -- 87
2019-09-18 13:00:00 25.4 7 Sudeste 11 Sudeste 0 -- -- 82
2019-09-18 12:00:00 24.4 8 Sudeste 12 Sudeste 0 -- -- 83
2019-09-18 11:00:00 25 9 Sur 10 Sur 0 -- -- 73
2019-09-18 10:00:00 22.6 7 Noroeste 16 Oeste 0 -- -- 77
2019-09-18 09:00:00 21.1 12 Oeste 19 Oeste 0 -- -- 81
2019-09-18 08:00:00 20.9 13 Oeste 16 Noroeste 0 -- -- 84
2019-09-18 07:00:00 21.2 13 Noroeste 21 Noroeste 0 -- -- 86
2019-09-18 06:00:00 21.4 16 Noroeste 20 Noroeste 0 -- -- 87
2019-09-18 05:00:00 21.3 12 Oeste 19 Oeste 0 -- -- 90
2019-09-18 04:00:00 22.1 13 Noroeste 16 Oeste 0 -- -- 88
2019-09-18 03:00:00 22.5 10 Oeste 18 Oeste 0 -- -- 86
2019-09-18 02:00:00 22.7 12 Oeste 24 Oeste 0 -- -- 89
2019-09-18 01:00:00 22 13 Noroeste 19 Noroeste 0 -- -- 94
2019-09-18 00:00:00 22.3 9 Oeste 13 Oeste 0 -- -- 95
2019-09-17 23:00:00 23.3 6 Oeste 10 Norte 0 -- -- 92
2019-09-17 22:00:00 23.8 5 Nordeste 15 Nordeste 0 -- -- 92
2019-09-17 21:00:00 24.1 14 Este 22 Este 0 -- -- 91
2019-09-15 18:00:00 25.7 7 Sur 27 Este 0 -- -- 87
2019-09-15 17:00:00 25.9 23 Este 29 Este 0 -- -- 86
2019-09-15 16:00:00 26.1 22 Este 32 Este 0 -- -- 84
2019-09-15 15:00:00 25.8 20 Este 28 Nordeste 0 -- -- 84
2019-09-15 14:00:00 26.6 10 Este 23 Nordeste 0 -- -- 79
2019-09-15 13:00:00 26.5 10 Nordeste 19 Nordeste 0 -- -- 80
2019-09-15 12:00:00 26 11 Nordeste 19 Nordeste 0 -- -- 81
2019-09-15 11:00:00 25.4 10 Norte 19 Noroeste 0 -- -- 75
2019-09-15 10:00:00 24 10 Noroeste 15 Noroeste 0 -- -- 81
2019-09-15 09:00:00 22.3 10 Noroeste 17 Oeste 0 -- -- 86
2019-09-15 08:00:00 21.5 10 Noroeste 17 Noroeste 0 -- -- 89
2019-09-15 07:00:00 21.7 14 Noroeste 18 Oeste 0 -- -- 89
2019-09-15 06:00:00 21.9 14 Noroeste 17 Oeste 0 -- -- 87
2019-09-15 05:00:00 23 11 Noroeste 19 Oeste 0 -- -- 83
2019-09-15 04:00:00 23 14 Noroeste 18 Noroeste 0 -- -- 84
2019-09-15 03:00:00 22.4 11 Noroeste 18 Noroeste 0 -- -- 85
2019-09-15 02:00:00 23.4 11 Noroeste 17 Noroeste 0 -- -- 82
2019-09-15 01:00:00 23.6 9 Noroeste 15 Noroeste 0 -- -- 83
2019-09-15 00:00:00 24 11 Noroeste 19 Noroeste 0 -- -- 80
2019-09-14 23:00:00 24.4 10 Norte 19 Norte 0 -- -- 78
2019-09-14 22:00:00 24.8 9 Noroeste 15 Norte 0 -- -- 77
2019-09-14 21:00:00 25.1 9 Norte 20 Norte 0 -- -- 79
2019-09-14 20:00:00 25 12 Norte 20 Norte 0 -- -- 75
2019-09-14 19:00:00 25.2 13 Norte 22 Norte 0 -- -- 76
2019-09-14 18:00:00 25.1 15 Norte 24 Norte 0 -- -- 78
2019-09-14 17:00:00 24.9 14 Norte 26 Nordeste 0 -- -- 78
2019-09-14 16:00:00 24.2 12 Norte 28 Nordeste 0 -- -- 76
2019-09-14 15:00:00 23.9 14 Norte 28 Noroeste 0 -- -- 75
2019-09-14 14:00:00 23.5 11 Norte 20 Noroeste 0 -- -- 74
2019-09-14 13:00:00 22.9 13 Noroeste 18 Noroeste 0 -- -- 78
2019-09-14 12:00:00 22.2 9 Noroeste 17 Noroeste 0 -- -- 80
2019-09-14 11:00:00 21.7 12 Noroeste 17 Noroeste 0 -- -- 82
2019-09-14 10:00:00 20.8 13 Noroeste 24 Noroeste 0 -- -- 83
2019-09-14 09:00:00 21 20 Noroeste 30 Norte 0 -- -- 80
2019-09-14 08:00:00 20.5 16 Noroeste 28 Noroeste 0 -- -- 84
2019-09-14 07:00:00 20.3 22 Noroeste 28 Noroeste 0 -- -- 83
2019-09-14 06:00:00 19.3 13 Oeste 22 Oeste 0 -- -- 88
2019-09-14 05:00:00 18.9 14 Noroeste 36 Noroeste 0 -- -- 89
2019-09-14 04:00:00 18.3 26 Noroeste 68 Sudoeste 3.4 -- -- 88
2019-09-14 03:00:00 22 15 Noroeste 28 Noroeste 0 -- -- 78
2019-09-14 02:00:00 22.5 12 Noroeste 33 Norte 0 -- -- 73
2019-09-14 01:00:00 23.3 16 Norte 30 Noroeste 0 -- -- 68
2019-09-14 00:00:00 23.1 14 Noroeste 26 Noroeste 0 -- -- 73
2019-09-13 23:00:00 23.2 13 Noroeste 39 Nordeste 0 -- -- 74
2019-09-13 22:00:00 23.5 31 Norte 51 Nordeste 0 -- -- 82
2019-09-13 21:00:00 24.4 36 Nordeste 48 Nordeste 0 -- -- 85
2019-09-13 20:00:00 25 23 Nordeste 41 Nordeste 0 -- -- 87
2019-09-13 19:00:00 24.8 31 Nordeste 40 Nordeste 0 -- -- 87
2019-09-13 18:00:00 25.2 30 Nordeste 41 Nordeste 0 -- -- 82
2019-09-13 17:00:00 25.1 23 Nordeste 32 Nordeste 0 -- -- 83
2019-09-13 16:00:00 24.7 21 Nordeste 32 Nordeste 0 -- -- 83
2019-09-13 15:00:00 24.4 24 Nordeste 35 Norte 0 -- -- 83
2019-09-13 14:00:00 24.8 24 Nordeste 35 Nordeste 0 -- -- 80
2019-09-13 13:00:00 24.2 14 Norte 23 Norte 0 -- -- 75
2019-09-13 12:00:00 22.6 12 Noroeste 23 Noroeste 0 -- -- 74
2019-09-13 11:00:00 21.1 17 Noroeste 27 Noroeste 0 -- -- 74
2019-09-13 10:00:00 20.2 20 Noroeste 31 Noroeste 0 -- -- 77
2019-09-13 09:00:00 19.4 20 Noroeste 29 Noroeste 0 -- -- 82
2019-09-13 08:00:00 18.3 17 Oeste 27 Oeste 1.4 -- -- 95
2019-09-13 07:00:00 18.3 18 Oeste 32 Oeste 18.6 -- -- 95
2019-09-13 06:00:00 19.1 18 Oeste 33 Noroeste 0.4 -- -- 89
2019-09-13 05:00:00 20.6 13 Noroeste 30 Noroeste 0 -- -- 84
2019-09-13 04:00:00 20.5 15 Oeste 25 Oeste 0 -- -- 84
2019-09-13 03:00:00 20.2 14 Noroeste 28 Oeste 1.6 -- -- 88
2019-09-13 02:00:00 20.9 15 Oeste 43 Nordeste 0.8 -- -- 87
2019-09-13 01:00:00 22.7 36 Nordeste 61 Nordeste 5 -- -- 84
2019-09-13 00:00:00 23.3 39 Nordeste 60 Nordeste 0 -- -- 83
2019-09-12 23:00:00 23 46 Nordeste 67 Nordeste 0 -- -- 86
2019-09-12 22:00:00 23.2 49 Nordeste 65 Norte 0 -- -- 89
2019-09-12 21:00:00 21.8 10 Noroeste 30 Nordeste 0 -- -- 86
2019-09-12 20:00:00 23.6 23 Este 29 Nordeste 0 -- -- 82
2019-09-12 19:00:00 23.6 23 Nordeste 29 Nordeste 0 -- -- 80
2019-09-12 18:00:00 22.8 8 Norte 19 Noroeste 0 -- -- 77
2019-09-12 17:00:00 22.9 15 Norte 29 Nordeste 0 -- -- 78
2019-09-12 16:00:00 23.2 22 Nordeste 33 Nordeste 0.4 -- -- 78
2019-09-12 15:00:00 23.5 11 Nordeste 21 Nordeste 0 -- -- 77
2019-09-12 14:00:00 23.6 19 Nordeste 33 Nordeste 0 -- -- 76
2019-09-12 13:00:00 21.8 3 Noroeste 19 Noroeste 1.4 -- -- 77
2019-09-12 12:00:00 21.7 8 Oeste 19 Oeste 0 -- -- 77
2019-09-12 11:00:00 20.3 15 Oeste 22 Oeste 0 -- -- 80
2019-09-12 10:00:00 18.9 14 Oeste 27 Sudoeste 0.6 -- -- 82
2019-09-12 09:00:00 17.7 14 Oeste 21 Oeste 0.2 -- -- 86
2019-09-12 08:00:00 17.7 14 Noroeste 23 Noroeste 0 -- -- 83
2019-09-12 07:00:00 17.7 12 Noroeste 21 Noroeste 0 -- -- 82
2019-09-12 06:00:00 17.7 17 Noroeste 28 Noroeste 0 -- -- 82
2019-09-12 05:00:00 17.9 12 Noroeste 30 Noroeste 0 -- -- 82
2019-09-12 04:00:00 17.7 12 Noroeste 33 Noroeste 0.2 -- -- 84
2019-09-12 03:00:00 18.8 13 Noroeste 33 Noroeste 0.2 -- -- 82
2019-09-12 02:00:00 19.3 8 Noroeste 19 Norte 0 -- -- 81
2019-09-12 01:00:00 19.7 13 Norte 23 Noroeste 0 -- -- 77
2019-09-12 00:00:00 19.3 14 Noroeste 30 Noroeste 0 -- -- 79
2019-09-11 23:00:00 19.2 13 Noroeste 25 Norte 0 -- -- 79
2019-09-11 22:00:00 18.8 13 Noroeste 49 Nordeste 8.8 -- -- 86
2019-09-11 21:00:00 21 36 Este 51 Nordeste 0 -- -- 77
2019-09-11 20:00:00 22.1 32 Nordeste 48 Nordeste 0 -- -- 74
2019-09-11 19:00:00 21.3 30 Nordeste 50 Este 2 -- -- 78
2019-09-11 18:00:00 21.6 36 Nordeste 57 Nordeste 1 -- -- 80
2019-09-11 17:00:00 24.1 31 Norte 50 Norte 0.2 -- -- 50
2019-09-11 16:00:00 23.3 13 Norte 30 Noroeste 0 -- -- 54
2019-09-11 15:00:00 21.5 11 Oeste 19 Oeste 0 -- -- 57
2019-09-11 14:00:00 19.3 14 Oeste 27 Oeste 0.2 -- -- 67
2019-09-11 13:00:00 19.3 18 Oeste 36 Norte 0 -- -- 64
2019-09-11 12:00:00 21.2 19 Noroeste 50 Noroeste 0 -- -- 50
2019-09-11 11:00:00 21.9 24 Noroeste 33 Oeste 0 -- -- 42
2019-09-11 10:00:00 21.4 16 Noroeste 26 Noroeste 0 -- -- 44
2019-09-11 09:00:00 19.9 14 Noroeste 26 Noroeste 0 -- -- 47
2019-09-11 08:00:00 19 13 Noroeste 20 Oeste 0 -- -- 48
2019-09-11 07:00:00 19.1 13 Oeste 22 Noroeste 0 -- -- 46
2019-09-11 06:00:00 19.9 14 Noroeste 24 Noroeste 0 -- -- 44
2019-09-11 05:00:00 19.4 7 Noroeste 25 Noroeste 0 -- -- 44
2019-09-11 04:00:00 20.4 12 Noroeste 31 Noroeste 0 -- -- 41
2019-09-11 03:00:00 21.3 11 Noroeste 20 Norte 0 -- -- 40
2019-09-11 02:00:00 22 7 Noroeste 21 Noroeste 0 -- -- 38
2019-09-11 01:00:00 22.3 16 Oeste 51 Norte 0 -- -- 40
2019-09-11 00:00:00 24.5 26 Norte 48 Norte 0 -- -- 30
2019-09-10 23:00:00 24.9 13 Noroeste 19 Noroeste 0 -- -- 28
2019-09-10 22:00:00 25.3 12 Noroeste 27 Noroeste 0 -- -- 24
2019-09-10 21:00:00 26.9 17 Noroeste 30 Noroeste 0 -- -- 21
2019-09-10 20:00:00 28.4 21 Noroeste 33 Noroeste 0 -- -- 23
2019-09-10 19:00:00 29.7 14 Norte 32 Noroeste 0 -- -- 22
2019-09-10 18:00:00 29.2 22 Noroeste 54 Noroeste 0 -- -- 25
2019-09-10 17:00:00 29.1 28 Noroeste 49 Oeste 0 -- -- 28
2019-09-10 16:00:00 29 31 Noroeste 58 Noroeste 0 -- -- 27
2019-09-10 15:00:00 28.4 34 Noroeste 62 Noroeste 0 -- -- 32
2019-09-10 14:00:00 28.3 39 Noroeste 63 Noroeste 0 -- -- 31
2019-09-10 13:00:00 28.3 42 Noroeste 59 Noroeste 0 -- -- 30
2019-09-10 12:00:00 28.7 35 Noroeste 49 Noroeste 0 -- -- 29
2019-09-10 11:00:00 28.6 8 Noroeste 27 Sudoeste 0 -- -- 31
2019-09-10 10:00:00 26.7 7 Noroeste 15 Norte 0 -- -- 46
2019-09-10 09:00:00 25.8 4 Sudoeste 22 Sudoeste 0 -- -- 51
2019-09-10 08:00:00 24.8 13 Sudoeste 31 Sudoeste 0 -- -- 56
2019-09-10 07:00:00 25.2 21 Sudoeste 28 Sudoeste 0 -- -- 57
2019-09-10 06:00:00 26.6 18 Sudoeste 27 Sudoeste 0 -- -- 50
2019-09-10 05:00:00 23.6 5 Noroeste 18 Noroeste 0 -- -- 62
2019-09-10 04:00:00 24 10 Oeste 34 Sudoeste 0 -- -- 61
2019-09-10 03:00:00 25 21 Sudoeste 31 Sudoeste 0 -- -- 63
2019-09-10 02:00:00 25 21 Oeste 29 Sudoeste 0 -- -- 67
2019-09-10 01:00:00 25.2 20 Oeste 29 Oeste 0 -- -- 68
2019-09-10 00:00:00 25.3 16 Oeste 22 Oeste 0 -- -- 69
2019-09-09 23:00:00 24.6 2 Sudoeste 9 Noroeste 0 -- -- 67
2019-09-09 22:00:00 24.4 10 Noroeste 13 Noroeste 0 -- -- 70
2019-09-09 21:00:00 24.5 8 Noroeste 13 Noroeste 0 -- -- 68
2019-09-09 20:00:00 25.9 8 Noroeste 22 Noroeste 0 -- -- 65
2019-09-09 19:00:00 27 12 Sur 19 Sur 0 -- -- 76
2019-09-09 18:00:00 27 15 Sudeste 34 Sur 0 -- -- 75
2019-09-09 17:00:00 26.1 28 Sudeste 45 Sur 0 -- -- 83
2019-09-09 16:00:00 25.1 41 Sur 49 Sur 0 -- -- 84
2019-09-09 15:00:00 25 41 Sudeste 46 Sur 0 -- -- 84
2019-09-09 14:00:00 25.2 33 Sudeste 37 Sudeste 0 -- -- 81
2019-09-09 13:00:00 25.2 24 Sudeste 28 Sudeste 0 -- -- 79
2019-09-09 12:00:00 25.7 15 Sudeste 19 Sudeste 0 -- -- 78
2019-09-09 11:00:00 26.1 6 Este 9 Nordeste 0 -- -- 74
2019-09-09 10:00:00 24.8 3 Norte 9 Oeste 0 -- -- 76
2019-09-09 09:00:00 22.9 6 Oeste 17 Oeste 0 -- -- 81
2019-09-09 08:00:00 22.1 14 Oeste 17 Oeste 0 -- -- 82
2019-09-09 07:00:00 22.7 11 Oeste 16 Oeste 0 -- -- 82
2019-09-09 06:00:00 23.1 10 Sudoeste 13 Oeste 0 -- -- 83
2019-09-09 05:00:00 23.5 10 Oeste 12 Oeste 0 -- -- 82
2019-09-09 04:00:00 23.7 9 Oeste 12 Oeste 0 -- -- 83
2019-09-09 03:00:00 24.1 8 Oeste 13 Este 0 -- -- 81
2019-09-09 02:00:00 24.9 9 Nordeste 15 Nordeste 0 -- -- 79
2019-09-09 01:00:00 25.1 10 Nordeste 17 Nordeste 0 -- -- 80
2019-09-09 00:00:00 25.1 10 Nordeste 17 Nordeste 0 -- -- 81
2019-09-08 23:00:00 25.3 11 Nordeste 18 Este 0 -- -- 82
2019-09-08 22:00:00 25.3 12 Nordeste 21 Este 0 -- -- 81
2019-09-08 21:00:00 25.4 16 Este 25 Este 0 -- -- 80
2019-09-08 20:00:00 26 18 Este 26 Este 0 -- -- 79
2019-09-08 19:00:00 26.5 20 Este 27 Este 0 -- -- 76
2019-09-08 18:00:00 26.5 24 Este 31 Este 0 -- -- 74
2019-09-08 17:00:00 26.9 27 Este 33 Nordeste 0 -- -- 69
2019-09-08 16:00:00 26.6 28 Nordeste 34 Este 0 -- -- 73
2019-09-08 15:00:00 26.6 24 Nordeste 30 Nordeste 0 -- -- 70
2019-09-08 14:00:00 26.7 22 Nordeste 33 Nordeste 0 -- -- 68
2019-09-08 13:00:00 26.1 26 Nordeste 34 Nordeste 0 -- -- 67
2019-09-08 12:00:00 25.5 23 Nordeste 35 Nordeste 0 -- -- 71
2019-09-08 11:00:00 25.1 21 Norte 32 Nordeste 0 -- -- 71
2019-09-08 10:00:00 24.1 17 Norte 25 Norte 0 -- -- 68
2019-09-08 09:00:00 22.7 18 Norte 25 Norte 0 -- -- 71
2019-09-08 08:00:00 22.3 14 Norte 25 Noroeste 0 -- -- 74
2019-09-08 07:00:00 22.5 17 Noroeste 24 Noroeste 0 -- -- 74
2019-09-08 06:00:00 22.5 16 Noroeste 23 Norte 0 -- -- 76
2019-09-08 05:00:00 22.7 16 Noroeste 23 Norte 0 -- -- 76
2019-09-08 04:00:00 22.8 17 Noroeste 23 Noroeste 0 -- -- 76
2019-09-08 03:00:00 23 16 Noroeste 25 Noroeste 0 -- -- 75
2019-09-08 02:00:00 23.3 14 Norte 24 Noroeste 0 -- -- 74
2019-09-08 01:00:00 23.9 14 Noroeste 29 Nordeste 0 -- -- 71
2019-09-08 00:00:00 25.1 22 Nordeste 37 Nordeste 0 -- -- 76
2019-09-07 23:00:00 25.2 31 Nordeste 40 Nordeste 0 -- -- 76
2019-09-07 22:00:00 25.2 33 Nordeste 41 Nordeste 0 -- -- 76
2019-09-07 21:00:00 25.1 33 Nordeste 52 Nordeste 0 -- -- 75
2019-09-07 20:00:00 25.6 41 Este 51 Este 0 -- -- 78
2019-09-07 19:00:00 26.1 31 Nordeste 39 Nordeste 0 -- -- 75
2019-09-07 18:00:00 26.6 24 Nordeste 33 Nordeste 0 -- -- 73
2019-09-07 17:00:00 26.3 25 Nordeste 34 Este 0 -- -- 74
2019-09-07 16:00:00 26.4 30 Este 36 Este 0 -- -- 74
2019-09-07 15:00:00 26.6 28 Este 38 Este 0 -- -- 75
2019-09-07 14:00:00 26.5 28 Nordeste 36 Nordeste 0 -- -- 74
2019-09-07 13:00:00 26.4 29 Nordeste 38 Nordeste 0 -- -- 74
2019-09-07 12:00:00 26.3 25 Nordeste 35 Nordeste 0 -- -- 75
2019-09-07 11:00:00 25.8 22 Nordeste 32 Nordeste 0 -- -- 77
2019-09-07 10:00:00 24.7 11 Norte 23 Norte 0 -- -- 77
2019-09-07 09:00:00 22.8 14 Noroeste 22 Noroeste 0 -- -- 85
2019-09-07 08:00:00 22.7 14 Noroeste 21 Noroeste 0 -- -- 83
2019-09-07 07:00:00 23.2 12 Noroeste 15 Norte 0 -- -- 82
2019-09-07 06:00:00 24.1 9 Noroeste 19 Norte 0 -- -- 79
2019-09-07 05:00:00 24.3 10 Norte 23 Nordeste 0 -- -- 81
2019-09-07 04:00:00 25.3 17 Nordeste 27 Nordeste 0 -- -- 78
2019-09-07 03:00:00 25.4 23 Nordeste 32 Nordeste 0 -- -- 78
2019-09-07 02:00:00 25.7 24 Nordeste 35 Este 0 -- -- 78
2019-09-07 01:00:00 25.7 27 Este 33 Nordeste 0 -- -- 79
2019-09-07 00:00:00 25.8 24 Nordeste 32 Nordeste 0 -- -- 78
2019-09-06 23:00:00 25.9 24 Nordeste 30 Nordeste 0 -- -- 78
2019-09-06 22:00:00 26 22 Nordeste 30 Nordeste 0 -- -- 78
2019-09-06 21:00:00 26.2 18 Nordeste 28 Nordeste 0 -- -- 77
2019-09-06 20:00:00 26.4 20 Nordeste 26 Este 0 -- -- 75
2019-09-06 19:00:00 26.8 18 Este 22 Este 0 -- -- 75
2019-09-06 18:00:00 26.3 17 Este 26 Este 0 -- -- 76
2019-09-06 17:00:00 26.6 19 Este 24 Este 0 -- -- 74
2019-09-06 16:00:00 26.8 20 Sudeste 24 Este 0 -- -- 76
2019-09-06 15:00:00 27 18 Este 25 Este 0 -- -- 74
2019-09-06 14:00:00 26.7 19 Este 26 Este 0 -- -- 73
2019-09-06 13:00:00 27.1 22 Este 27 Nordeste 0 -- -- 73
2019-09-06 12:00:00 27.1 17 Nordeste 23 Nordeste 0 -- -- 74
2019-09-06 11:00:00 26.8 14 Nordeste 22 Norte 0 -- -- 76
2019-09-06 10:00:00 25.7 8 Norte 18 Noroeste 0 -- -- 76
2019-09-06 09:00:00 23.3 11 Noroeste 15 Noroeste 0 -- -- 81
2019-09-06 08:00:00 22.8 10 Noroeste 17 Noroeste 0 -- -- 83
2019-09-06 07:00:00 23.4 8 Noroeste 17 Noroeste 0 -- -- 81
2019-09-06 06:00:00 23.5 12 Noroeste 17 Noroeste 0 -- -- 79
2019-09-06 05:00:00 24 10 Noroeste 17 Noroeste 0 -- -- 79
2019-09-06 04:00:00 24 11 Norte 19 Norte 0 -- -- 79
2019-09-06 03:00:00 24.9 11 Norte 22 Nordeste 0 -- -- 78
2019-09-06 02:00:00 25.5 16 Nordeste 23 Nordeste 0 -- -- 80
2019-09-06 01:00:00 25.8 11 Nordeste 19 Nordeste 0 -- -- 81
2019-09-06 00:00:00 25.9 13 Nordeste 21 Nordeste 0 -- -- 79
2019-09-05 23:00:00 26.2 13 Nordeste 18 Nordeste 0 -- -- 79
2019-09-05 22:00:00 26.2 9 Nordeste 20 Nordeste 0 -- -- 77
2019-09-05 21:00:00 26.1 14 Nordeste 21 Nordeste 0 -- -- 75
2019-09-05 20:00:00 26.5 13 Nordeste 21 Este 0 -- -- 73
2019-09-05 19:00:00 26.9 16 Este 22 Este 0 -- -- 72
2019-09-05 18:00:00 27.6 19 Este 24 Este 0 -- -- 72
2019-09-05 17:00:00 27.3 18 Este 27 Este 0 -- -- 76
2019-09-05 16:00:00 27 21 Este 26 Este 0 -- -- 75
2019-09-05 15:00:00 27.9 19 Este 27 Este 0 -- -- 73
2019-09-05 14:00:00 27.2 17 Este 21 Este 0 -- -- 76
2019-09-05 13:00:00 26.2 14 Este 18 Este 0 -- -- 79
2019-09-05 12:00:00 26.5 13 Este 17 Este 0 -- -- 78
2019-09-05 11:00:00 26.1 12 Este 17 Este 0 -- -- 78
2019-09-05 10:00:00 25.8 2 Nordeste 5 Nordeste 0 -- -- 83
2019-09-05 09:00:00 25.1 3 Sudoeste 6 Sudoeste 0 -- -- 86
2019-09-05 08:00:00 24.9 3 Sudoeste 6 Oeste 0 -- -- 86
2019-09-05 07:00:00 25.1 4 Sur 9 Este 0 -- -- 86
2019-09-05 06:00:00 25.1 4 Sur 10 Sur 0 -- -- 86
2019-09-05 05:00:00 25.2 11 Sur 16 Sur 0 -- -- 85
2019-09-05 04:00:00 25.3 5 Sudoeste 14 Sur 0 -- -- 84
2019-09-05 03:00:00 25.6 9 Sudeste 12 Sudeste 0 -- -- 85
2019-09-05 02:00:00 25.4 8 Sur 12 Sudeste 0 -- -- 86
2019-09-05 01:00:00 25.4 8 Sudeste 15 Sudeste 0 -- -- 87
2019-09-05 00:00:00 25.5 14 Sudeste 17 Sudeste 0 -- -- 85
2019-09-04 23:00:00 25.6 14 Sudeste 20 Sudeste 0 -- -- 85
2019-09-04 22:00:00 25.7 16 Sudeste 22 Sudeste 0 -- -- 84
2019-09-04 21:00:00 25.9 19 Sudeste 23 Sudeste 0 -- -- 83
2019-09-04 20:00:00 25.9 18 Sudeste 24 Sudeste 0 -- -- 82
2019-09-04 19:00:00 26.5 21 Sudeste 27 Sudeste 0 -- -- 81
2019-09-04 18:00:00 26.5 23 Sudeste 30 Sudeste 0 -- -- 79
2019-09-04 17:00:00 26.5 26 Sudeste 29 Sudeste 0 -- -- 79
2019-09-04 16:00:00 26.5 26 Sudeste 29 Sudeste 0 -- -- 79
2019-09-04 15:00:00 26.6 24 Sudeste 27 Sudeste 0 -- -- 80
2019-09-04 14:00:00 26.9 23 Sudeste 26 Este 0 -- -- 79
2019-09-04 13:00:00 26.7 20 Este 25 Este 0 -- -- 80
2019-09-04 12:00:00 26.6 13 Este 16 Este 0 -- -- 78
2019-09-04 11:00:00 27.7 7 Nordeste 12 Nordeste 0 -- -- 77
2019-09-04 10:00:00 26.3 4 Norte 13 Oeste 0 -- -- 81
2019-09-04 09:00:00 23.9 12 Oeste 16 Oeste 0 -- -- 86
2019-09-04 08:00:00 23.7 6 Noroeste 10 Noroeste 0 -- -- 87
2019-09-04 07:00:00 23.9 5 Noroeste 12 Noroeste 0 -- -- 87
2019-09-04 06:00:00 24.3 9 Noroeste 12 Noroeste 0 -- -- 86
2019-09-04 05:00:00 24.5 7 Noroeste 10 Noroeste 0 -- -- 85
2019-09-04 04:00:00 24.8 8 Oeste 10 Oeste 0 -- -- 84
2019-09-04 03:00:00 24.9 7 Oeste 9 Noroeste 0 -- -- 85
2019-09-04 02:00:00 25 7 Oeste 9 Oeste 0 -- -- 84
2019-09-04 01:00:00 25.2 4 Noroeste 11 Norte 0 -- -- 84
2019-09-04 00:00:00 25.9 7 Nordeste 11 Norte 0 -- -- 85
2019-09-03 23:00:00 26 5 Nordeste 13 Este 0 -- -- 84
2019-09-03 22:00:00 26.1 7 Nordeste 12 Nordeste 0 -- -- 84
2019-09-03 21:00:00 26.1 8 Este 13 Este 0 -- -- 83
2019-09-03 20:00:00 26.5 9 Este 14 Nordeste 0 -- -- 81
2019-09-03 19:00:00 27.7 12 Nordeste 23 Este 0 -- -- 77
2019-09-03 18:00:00 26.9 19 Este 28 Este 0 -- -- 81
2019-09-03 17:00:00 27 24 Este 32 Este 0 -- -- 80
2019-09-03 16:00:00 26.5 28 Este 33 Este 0 -- -- 81
2019-09-03 15:00:00 27 30 Este 34 Este 0 -- -- 79
2019-09-03 14:00:00 27.5 23 Este 27 Este 0 -- -- 77
2019-09-03 13:00:00 28 20 Este 27 Nordeste 0 -- -- 75
2019-09-03 12:00:00 28.1 21 Nordeste 24 Nordeste 0 -- -- 70
2019-09-03 11:00:00 28.5 8 Nordeste 18 Nordeste 0 -- -- 65
2019-09-03 10:00:00 26 13 Norte 23 Noroeste 0 -- -- 73
2019-09-03 09:00:00 24.1 10 Oeste 17 Noroeste 0 -- -- 81
2019-09-03 08:00:00 23 12 Noroeste 16 Noroeste 0 -- -- 84
2019-09-03 07:00:00 23.2 11 Noroeste 15 Noroeste 0 -- -- 84
2019-09-03 06:00:00 23.6 11 Noroeste 15 Noroeste 0 -- -- 82
2019-09-03 05:00:00 23.7 10 Noroeste 14 Noroeste 0 -- -- 82
2019-09-03 04:00:00 24.4 8 Noroeste 14 Noroeste 0 -- -- 80
2019-09-03 03:00:00 25.2 7 Noroeste 22 Norte 0 -- -- 77
2019-09-03 02:00:00 26.1 16 Norte 27 Nordeste 0 -- -- 82
2019-09-03 01:00:00 26.3 21 Nordeste 29 Nordeste 0 -- -- 85
2019-09-03 00:00:00 26.3 21 Nordeste 28 Nordeste 0 -- -- 86
2019-09-02 23:00:00 26.4 21 Nordeste 27 Nordeste 0 -- -- 85
2019-09-02 22:00:00 26.8 16 Nordeste 23 Nordeste 0 -- -- 85
2019-09-02 21:00:00 27.4 17 Nordeste 22 Nordeste 0 -- -- 80
2019-09-02 20:00:00 28.3 10 Nordeste 15 Nordeste 0 -- -- 75
2019-09-02 19:00:00 29.6 8 Nordeste 14 Nordeste 0 -- -- 72
2019-09-02 18:00:00 29.5 8 Nordeste 22 Nordeste 0 -- -- 72
2019-09-02 17:00:00 28.4 16 Este 26 Este 0 -- -- 77
2019-09-02 16:00:00 28.3 22 Este 30 Este 0 -- -- 76
2019-09-02 15:00:00 28.4 24 Este 30 Nordeste 0 -- -- 77
2019-09-02 14:00:00 28.5 19 Nordeste 30 Nordeste 0 -- -- 78
2019-09-02 13:00:00 28.4 20 Nordeste 30 Nordeste 0 -- -- 77
2019-09-02 12:00:00 27.6 22 Nordeste 28 Norte 0 -- -- 79
2019-09-02 11:00:00 27.2 16 Nordeste 23 Nordeste 0 -- -- 77
2019-09-02 10:00:00 25.5 10 Norte 15 Norte 0 -- -- 78
2019-09-02 09:00:00 24.6 7 Noroeste 17 Noroeste 0 -- -- 86
2019-09-02 08:00:00 23.9 3 Noroeste 12 Noroeste 0 -- -- 88
2019-09-02 07:00:00 23.9 6 Noroeste 12 Noroeste 0 -- -- 88
2019-09-02 06:00:00 23.8 6 Oeste 13 Oeste 0 -- -- 88
2019-09-02 05:00:00 24 8 Oeste 13 Oeste 0 -- -- 88
2019-09-02 04:00:00 23.9 7 Oeste 12 Oeste 0 -- -- 88
2019-09-02 03:00:00 24.5 8 Oeste 12 Sudoeste 0 -- -- 87
2019-09-02 02:00:00 24.9 11 Sudoeste 13 Sudoeste 0 -- -- 87
2019-09-02 01:00:00 25.2 7 Oeste 12 Norte 0 -- -- 88
2019-09-02 00:00:00 26.1 10 Nordeste 14 Nordeste 0 -- -- 88
2019-09-01 23:00:00 26.3 7 Nordeste 12 Nordeste 0 -- -- 86
2019-09-01 22:00:00 26.4 11 Sur 20 Sur 0 -- -- 85
2019-09-01 21:00:00 26.5 23 Sur 32 Sur 0 -- -- 88
2019-09-01 20:00:00 26.6 28 Sur 36 Sur 0 -- -- 85
2019-09-01 19:00:00 26.5 31 Sur 45 Sur 0 -- -- 83
2019-09-01 18:00:00 26.3 39 Sudeste 49 Sudeste 0 -- -- 88
2019-09-01 17:00:00 26.4 42 Sudeste 48 Sudeste 0 -- -- 88
2019-09-01 16:00:00 26.2 37 Sudeste 43 Sudeste 0 -- -- 85
2019-09-01 15:00:00 26.1 39 Sudeste 44 Sudeste 0 -- -- 87
2019-09-01 14:00:00 26.1 35 Sudeste 40 Sudeste 0 -- -- 88
2019-09-01 13:00:00 26.1 27 Sudeste 31 Sudeste 0 -- -- 86
2019-09-01 12:00:00 26.5 17 Sudeste 21 Sudeste 0 -- -- 83
2019-09-01 11:00:00 26.5 10 Este 12 Sudeste 0 -- -- 76
2019-09-01 10:00:00 25.7 4 Noroeste 13 Oeste 0 -- -- 75
2019-09-01 09:00:00 23.5 9 Oeste 15 Oeste 0 -- -- 76
2019-09-01 08:00:00 22.3 10 Oeste 15 Oeste 0 -- -- 79
2019-09-01 07:00:00 22.7 6 Oeste 12 Oeste 0 -- -- 79
2019-09-01 06:00:00 23.1 6 Oeste 12 Oeste 0 -- -- 75
2019-09-01 05:00:00 23.4 9 Oeste 12 Oeste 0 -- -- 78
2019-09-01 04:00:00 23.8 5 Oeste 9 Oeste 0 -- -- 84
2019-09-01 03:00:00 24.3 6 Oeste 12 Oeste 0 -- -- 84
2019-09-01 02:00:00 24.7 10 Oeste 12 Oeste 0 -- -- 85
2019-09-01 01:00:00 25 7 Sudoeste 10 Sudoeste 0 -- -- 86
2019-09-01 00:00:00 25.1 4 Sudoeste 9 Sudoeste 0 -- -- 87
2019-08-31 23:00:00 25.7 7 Sudoeste 12 Sudeste 0 -- -- 85
2019-08-31 22:00:00 26.2 12 Sudeste 23 Sudeste 0 -- -- 88
2019-08-31 21:00:00 26.2 21 Sudeste 24 Sudeste 0 -- -- 86
2019-08-31 20:00:00 26.6 21 Sudeste 25 Sudeste 0 -- -- 85
2019-08-31 19:00:00 26.5 23 Sudeste 33 Sudeste 0 -- -- 84
2019-08-31 18:00:00 26.3 30 Sudeste 36 Sudeste 0 -- -- 83
2019-08-31 17:00:00 26.2 32 Sudeste 37 Sur 0 -- -- 83
2019-08-31 16:00:00 26 32 Sudeste 37 Sudeste 0 -- -- 84
2019-08-31 15:00:00 26.2 30 Sudeste 34 Sudeste 0 -- -- 81
2019-08-31 14:00:00 26.5 26 Sudeste 30 Sudeste 0 -- -- 83
2019-08-31 13:00:00 26.8 20 Sudeste 23 Sudeste 0 -- -- 80
2019-08-31 12:00:00 26.5 14 Sudeste 16 Sudeste 0 -- -- 79
2019-08-31 11:00:00 27.6 8 Este 9 Este 0 -- -- 67
2019-08-31 10:00:00 28 2 Nordeste 9 Oeste 0 -- -- 62
2019-08-31 09:00:00 24.7 8 Oeste 12 Sudoeste 0 -- -- 67
2019-08-31 08:00:00 24 4 Oeste 9 Oeste 0 -- -- 69
2019-08-31 07:00:00 23.8 4 Oeste 11 Oeste 0 -- -- 71
2019-08-31 06:00:00 23.5 8 Oeste 31 Oeste 0 -- -- 72
2019-08-31 05:00:00 23.8 0 Calma 12 Sudoeste 0 -- -- 76
2019-08-31 04:00:00 24 4 Noroeste 7 Nordeste 0 -- -- 72
2019-08-31 03:00:00 24.2 6 Noroeste 17 Oeste 0 -- -- 71
2019-08-31 02:00:00 23.9 11 Noroeste 15 Oeste 0 -- -- 79
2019-08-31 01:00:00 24.6 12 Oeste 17 Oeste 0 -- -- 75
2019-08-31 00:00:00 24.9 6 Oeste 11 Oeste 0 -- -- 84
2019-08-30 23:00:00 25.2 8 Oeste 10 Oeste 0 -- -- 83
2019-08-30 22:00:00 25.7 3 Norte 12 Nordeste 0 -- -- 82
2019-08-30 21:00:00 26.1 8 Nordeste 12 Nordeste 0 -- -- 81
2019-08-30 20:00:00 26.2 9 Este 17 Este 0 -- -- 80
2019-08-30 19:00:00 26.5 15 Este 19 Sudeste 0 -- -- 79
2019-08-30 18:00:00 26.8 15 Sudeste 20 Sudeste 0 -- -- 78
2019-08-30 17:00:00 26.7 17 Sudeste 23 Sudeste 0 -- -- 79
2019-08-30 16:00:00 26.4 19 Sudeste 26 Sudeste 0 -- -- 79
2019-08-30 15:00:00 26.4 23 Sudeste 27 Sudeste 0 -- -- 80
2019-08-30 14:00:00 26.6 19 Sudeste 22 Sudeste 0 -- -- 75
2019-08-30 13:00:00 27.1 13 Este 17 Este 0 -- -- 75
2019-08-30 12:00:00 26.8 10 Este 12 Este 0 -- -- 77
2019-08-30 11:00:00 28 5 Nordeste 8 Nordeste 0 -- -- 65
2019-08-30 10:00:00 26 3 Noroeste 15 Oeste 0 -- -- 63
2019-08-30 09:00:00 23.2 12 Oeste 18 Oeste 0 -- -- 70
2019-08-30 08:00:00 22.5 10 Oeste 16 Oeste 0 -- -- 77
2019-08-30 07:00:00 22.6 11 Oeste 13 Oeste 0 -- -- 77
2019-08-30 06:00:00 23.6 7 Oeste 12 Oeste 0 -- -- 73
2019-08-30 05:00:00 23.1 9 Oeste 14 Noroeste 0 -- -- 73
2019-08-30 04:00:00 23.6 14 Oeste 18 Oeste 0 -- -- 74
2019-08-30 03:00:00 23.6 11 Oeste 15 Oeste 0 -- -- 82
2019-08-30 02:00:00 24.6 7 Oeste 12 Oeste 0 -- -- 79
2019-08-30 01:00:00 25 5 Oeste 10 Sur 0 -- -- 82
2019-08-30 00:00:00 26 10 Sudeste 15 Sudeste 0 -- -- 83
2019-08-29 23:00:00 26.3 5 Sudeste 10 Sudeste 0 -- -- 80
2019-08-29 22:00:00 25.9 8 Sudeste 10 Sur 0 -- -- 80
2019-08-29 21:00:00 25.9 3 Norte 8 Nordeste 0 -- -- 81
2019-08-29 20:00:00 27.1 4 Nordeste 14 Este 0 -- -- 79
2019-08-29 19:00:00 26.5 12 Sudeste 19 Este 0 -- -- 80
2019-08-29 18:00:00 26.3 17 Sudeste 26 Sudeste 0 -- -- 79
2019-08-29 17:00:00 26.4 23 Sudeste 27 Sudeste 0 -- -- 82
2019-08-29 16:00:00 26.4 16 Sudeste 20 Este 0 -- -- 82
2019-08-29 15:00:00 26.4 17 Este 22 Este 0 -- -- 83
2019-08-29 14:00:00 26.9 12 Este 16 Este 0 -- -- 82
2019-08-29 13:00:00 27.9 12 Nordeste 17 Nordeste 0 -- -- 78
2019-08-29 12:00:00 27.4 10 Nordeste 14 Nordeste 0 -- -- 78
2019-08-29 11:00:00 26.3 5 Nordeste 12 Noroeste 0 -- -- 76
2019-08-29 10:00:00 24.8 9 Noroeste 14 Oeste 0 -- -- 74
2019-08-29 09:00:00 23.1 8 Oeste 14 Oeste 0 -- -- 82
2019-08-29 08:00:00 22.3 11 Oeste 14 Oeste 0 -- -- 84
2019-08-29 07:00:00 22.2 12 Oeste 16 Noroeste 0 -- -- 85
2019-08-29 06:00:00 22.7 11 Oeste 18 Oeste 0 -- -- 87
2019-08-29 05:00:00 23.1 14 Oeste 18 Oeste 0 -- -- 86
2019-08-29 04:00:00 23.2 13 Oeste 16 Oeste 0 -- -- 88
2019-08-29 03:00:00 23.4 8 Noroeste 12 Oeste 0 -- -- 89
2019-08-29 02:00:00 24.2 8 Oeste 12 Oeste 0 -- -- 88
2019-08-29 01:00:00 24.9 3 Oeste 8 Oeste 0 -- -- 86
2019-08-29 00:00:00 25.5 2 Este 8 Este 0 -- -- 86
2019-08-28 23:00:00 25.7 5 Este 8 Sudeste 0 -- -- 85
2019-08-28 22:00:00 25.6 6 Sudeste 11 Sudeste 0 -- -- 84
2019-08-28 21:00:00 25.7 10 Sudeste 20 Sudeste 0 -- -- 85
2019-08-28 20:00:00 25.9 18 Sudeste 29 Sudeste 0 -- -- 85
2019-08-28 19:00:00 26.2 23 Sudeste 30 Sudeste 0 -- -- 83
2019-08-28 18:00:00 26.2 28 Sudeste 36 Sudeste 0 -- -- 82
2019-08-28 17:00:00 26.2 33 Sudeste 40 Sudeste 0 -- -- 82
2019-08-28 16:00:00 26.2 33 Sudeste 41 Sudeste 0 -- -- 80
2019-08-28 15:00:00 26.2 35 Sudeste 41 Sudeste 0 -- -- 79
2019-08-28 14:00:00 26 33 Sudeste 40 Sudeste 0 -- -- 78
2019-08-28 13:00:00 26.2 25 Sudeste 28 Sudeste 0 -- -- 77
2019-08-28 12:00:00 26.7 12 Sudeste 15 Sudeste 0 -- -- 71
2019-08-28 11:00:00 27.3 4 Este 10 Oeste 0 -- -- 70
2019-08-28 10:00:00 24.8 6 Noroeste 12 Oeste 0 -- -- 78
2019-08-28 09:00:00 22.9 12 Noroeste 16 Oeste 0 -- -- 84
2019-08-28 08:00:00 21.8 14 Oeste 19 Oeste 0 -- -- 86
2019-08-28 07:00:00 22.5 11 Oeste 17 Oeste 0 -- -- 85
2019-08-28 06:00:00 22.8 13 Oeste 19 Oeste 0 -- -- 85
2019-08-28 05:00:00 22.9 10 Oeste 14 Oeste 0 -- -- 86
2019-08-28 04:00:00 23.3 9 Oeste 17 Oeste 0 -- -- 87
2019-08-28 03:00:00 23.4 10 Oeste 14 Oeste 0 -- -- 86
2019-08-28 02:00:00 23.6 6 Noroeste 12 Este 0 -- -- 87
2019-08-28 01:00:00 25.1 8 Este 10 Este 0 -- -- 83
2019-08-28 00:00:00 24.6 5 Oeste 12 Oeste 0 -- -- 85
2019-08-27 23:00:00 24.4 10 Noroeste 13 Noroeste 0 -- -- 84
2019-08-27 22:00:00 25.4 2 Sur 13 Norte 0 -- -- 79
2019-08-27 21:00:00 25.5 10 Nordeste 35 Nordeste 0 -- -- 80
2019-08-27 20:00:00 25.2 31 Nordeste 44 Nordeste 0 -- -- 83
2019-08-27 19:00:00 26.6 38 Este 44 Nordeste 0 -- -- 85
2019-08-27 18:00:00 27.2 29 Sudeste 36 Sur 0 -- -- 79
2019-08-27 17:00:00 27.3 30 Sudeste 35 Sudeste 0 -- -- 82
2019-08-27 16:00:00 26.6 24 Sudeste 46 Sur 0 -- -- 73
2019-08-27 15:00:00 25.8 37 Sur 45 Sur 0 -- -- 70
2019-08-27 14:00:00 26.6 29 Sudeste 33 Sudeste 0 -- -- 80
2019-08-27 13:00:00 26.6 16 Sudeste 19 Sudeste 0 -- -- 75
2019-08-27 12:00:00 27.9 11 Este 17 Este 0 -- -- 69
2019-08-27 11:00:00 27.1 6 Noroeste 15 Noroeste 0 -- -- 66
2019-08-27 10:00:00 25 10 Oeste 19 Oeste 0 -- -- 75
2019-08-27 09:00:00 23.3 11 Noroeste 17 Oeste 0 -- -- 83
2019-08-27 08:00:00 23.2 10 Oeste 15 Oeste 0 -- -- 87
2019-08-27 07:00:00 23.2 11 Noroeste 18 Oeste 0 -- -- 89
2019-08-27 06:00:00 23.5 12 Oeste 15 Oeste 0 -- -- 86
2019-08-27 05:00:00 24.6 10 Noroeste 13 Noroeste 0 -- -- 82
2019-08-27 04:00:00 24.9 3 Noroeste 16 Noroeste 0.2 -- -- 83
2019-08-27 03:00:00 24.9 10 Noroeste 14 Noroeste 0 -- -- 81
2019-08-27 02:00:00 24.8 11 Noroeste 20 Noroeste 0 -- -- 85
2019-08-27 01:00:00 25.5 10 Oeste 16 Norte 0 -- -- 83
2019-08-27 00:00:00 26.4 13 Norte 26 Nordeste 0 -- -- 82
2019-08-26 23:00:00 26.6 19 Nordeste 29 Nordeste 0 -- -- 85
2019-08-26 22:00:00 26.6 22 Nordeste 44 Este 0 -- -- 84
2019-08-26 21:00:00 26.5 35 Este 45 Nordeste 0 -- -- 86
2019-08-26 20:00:00 26.7 37 Nordeste 46 Nordeste 0 -- -- 85
2019-08-26 19:00:00 26.9 39 Nordeste 46 Nordeste 0 -- -- 85
2019-08-26 18:00:00 27.2 38 Nordeste 46 Nordeste 0 -- -- 83
2019-08-26 17:00:00 27.3 37 Este 45 Nordeste 0 -- -- 82
2019-08-26 16:00:00 27.9 33 Nordeste 40 Nordeste 0 -- -- 79
2019-08-26 15:00:00 27.7 24 Nordeste 32 Nordeste 0 -- -- 75
2019-08-26 14:00:00 27.5 26 Nordeste 35 Nordeste 0 -- -- 77
2019-08-26 13:00:00 27.6 27 Nordeste 35 Nordeste 0 -- -- 79
2019-08-26 12:00:00 27.1 26 Nordeste 35 Nordeste 0 -- -- 79
2019-08-26 11:00:00 26.8 21 Nordeste 31 Nordeste 0 -- -- 78
2019-08-26 10:00:00 26.3 19 Norte 30 Norte 0 -- -- 80
2019-08-26 09:00:00 25 9 Noroeste 23 Norte 0 -- -- 77
2019-08-26 08:00:00 24.7 11 Norte 23 Norte 0 -- -- 77
2019-08-26 07:00:00 24.4 12 Norte 22 Norte 0 -- -- 79
2019-08-26 06:00:00 24.6 14 Norte 24 Norte 0 -- -- 79
2019-08-26 05:00:00 25 15 Norte 24 Norte 0 -- -- 79
2019-08-26 04:00:00 25.2 10 Norte 16 Norte 0 -- -- 75
2019-08-26 03:00:00 25.8 11 Norte 18 Norte 0 -- -- 76
2019-08-26 02:00:00 25.9 13 Norte 30 Nordeste 0 -- -- 77
2019-08-26 01:00:00 26.1 13 Nordeste 26 Nordeste 0 -- -- 81
2019-08-26 00:00:00 26 21 Nordeste 27 Nordeste 0 -- -- 82
2019-08-25 23:00:00 26.2 14 Nordeste 20 Nordeste 0 -- -- 80
2019-08-25 22:00:00 26.2 14 Nordeste 19 Nordeste 0 -- -- 83
2019-08-25 21:00:00 26.4 15 Nordeste 22 Este 0 -- -- 82
2019-08-25 20:00:00 27.1 18 Nordeste 24 Este 0 -- -- 79
2019-08-25 19:00:00 27.4 19 Este 30 Este 0 -- -- 77
2019-08-25 18:00:00 27.6 23 Este 31 Este 0 -- -- 76
2019-08-25 17:00:00 26.8 24 Este 31 Este 0 -- -- 78
2019-08-25 16:00:00 26.9 24 Este 30 Este 0 -- -- 75
2019-08-25 15:00:00 26.7 22 Este 28 Este 0 -- -- 79
2019-08-25 14:00:00 26.8 21 Este 26 Este 0 -- -- 78
2019-08-25 13:00:00 27.1 19 Este 24 Este 0 -- -- 74
2019-08-25 12:00:00 28.3 14 Nordeste 19 Nordeste 0 -- -- 67
2019-08-25 11:00:00 27.5 7 Nordeste 11 Norte 0 -- -- 70
2019-08-25 10:00:00 25.3 2 Noroeste 17 Noroeste 0 -- -- 73
2019-08-25 09:00:00 23 14 Noroeste 18 Oeste 0 -- -- 78
2019-08-25 08:00:00 22.2 14 Oeste 17 Oeste 0 -- -- 78
2019-08-25 07:00:00 22.3 12 Oeste 16 Oeste 0 -- -- 78
2019-08-25 06:00:00 22.8 10 Noroeste 15 Noroeste 0 -- -- 80
2019-08-25 05:00:00 22.9 11 Oeste 17 Noroeste 0 -- -- 81
2019-08-25 04:00:00 23.5 11 Noroeste 17 Oeste 0 -- -- 78
2019-08-25 03:00:00 23.5 13 Oeste 17 Oeste 0 -- -- 80
2019-08-25 02:00:00 24.3 9 Noroeste 13 Oeste 0 -- -- 80
2019-08-25 01:00:00 24.8 8 Noroeste 12 Noroeste 0 -- -- 80
2019-08-25 00:00:00 25.4 6 Noroeste 15 Nordeste 0 -- -- 79
2019-08-24 23:00:00 26.1 8 Nordeste 14 Nordeste 0 -- -- 79
2019-08-24 22:00:00 26.2 7 Nordeste 13 Norte 0 -- -- 78
2019-08-24 21:00:00 26.3 9 Nordeste 13 Nordeste 0 -- -- 77
2019-08-24 20:00:00 27.6 7 Nordeste 13 Nordeste 0 -- -- 73
2019-08-24 19:00:00 27.2 9 Este 21 Este 0 -- -- 75
2019-08-24 18:00:00 26.8 15 Este 24 Este 0 -- -- 79
2019-08-24 17:00:00 26.8 20 Este 24 Este 0 -- -- 75
2019-08-24 16:00:00 26.9 18 Este 25 Este 0 -- -- 76
2019-08-24 15:00:00 27 21 Este 25 Este 0 -- -- 75
2019-08-24 14:00:00 26.7 22 Este 27 Este 0 -- -- 76
2019-08-24 13:00:00 27 20 Este 24 Nordeste 0 -- -- 72
2019-08-24 12:00:00 27.1 18 Nordeste 26 Nordeste 0 -- -- 72
2019-08-24 11:00:00 26.9 13 Nordeste 22 Nordeste 0 -- -- 71
2019-08-24 10:00:00 25.5 12 Norte 18 Noroeste 0 -- -- 61
2019-08-24 09:00:00 23 10 Noroeste 17 Noroeste 0 -- -- 70
2019-08-24 08:00:00 21.7 12 Noroeste 18 Oeste 0 -- -- 74
2019-08-24 07:00:00 21.7 13 Noroeste 21 Noroeste 0 -- -- 76
2019-08-24 06:00:00 22 13 Noroeste 17 Noroeste 0 -- -- 77
2019-08-24 05:00:00 22.8 10 Noroeste 15 Noroeste 0 -- -- 75
2019-08-24 04:00:00 23.1 9 Noroeste 14 Noroeste 0 -- -- 78
2019-08-24 03:00:00 23.3 12 Oeste 16 Oeste 0 -- -- 77
2019-08-24 02:00:00 24 13 Oeste 16 Oeste 0 -- -- 75
2019-08-24 01:00:00 24.4 11 Oeste 15 Nordeste 0 -- -- 75
2019-08-24 00:00:00 26.1 10 Nordeste 20 Nordeste 0 -- -- 76
2019-08-23 23:00:00 26.2 15 Nordeste 21 Nordeste 0 -- -- 76
2019-08-23 22:00:00 26.4 16 Nordeste 23 Nordeste 0 -- -- 73
2019-08-23 21:00:00 26.5 16 Nordeste 24 Este 0 -- -- 73
2019-08-23 20:00:00 27.5 20 Nordeste 31 Este 0 -- -- 72
2019-08-23 19:00:00 27.5 26 Este 32 Este 0 -- -- 72
2019-08-23 18:00:00 27.9 26 Este 33 Este 0 -- -- 69
2019-08-23 17:00:00 27.7 27 Este 39 Este 0 -- -- 69
2019-08-23 16:00:00 27.4 32 Este 39 Este 0 -- -- 70
2019-08-23 15:00:00 27.1 28 Este 33 Este 0 -- -- 75
2019-08-23 14:00:00 28.1 18 Este 24 Nordeste 0 -- -- 69
2019-08-23 13:00:00 27.7 21 Nordeste 32 Nordeste 0 -- -- 66
2019-08-23 12:00:00 27.6 18 Nordeste 24 Nordeste 0 -- -- 65
2019-08-23 11:00:00 27.3 15 Nordeste 22 Nordeste 0 -- -- 65
2019-08-23 10:00:00 25.3 12 Noroeste 22 Noroeste 0 -- -- 62
2019-08-23 09:00:00 22.8 13 Noroeste 19 Oeste 0 -- -- 68
2019-08-23 08:00:00 21.1 14 Noroeste 19 Noroeste 0 -- -- 74
2019-08-23 07:00:00 21.6 13 Noroeste 19 Noroeste 0 -- -- 74
2019-08-23 06:00:00 22.1 14 Noroeste 19 Noroeste 0 -- -- 78
2019-08-23 05:00:00 22.2 11 Noroeste 15 Noroeste 0 -- -- 81
2019-08-23 04:00:00 22.6 12 Noroeste 17 Noroeste 0 -- -- 77
2019-08-23 03:00:00 23.3 10 Noroeste 17 Noroeste 0 -- -- 74
2019-08-23 02:00:00 24 10 Norte 16 Norte 0 -- -- 69
2019-08-23 01:00:00 24.6 8 Noroeste 12 Noroeste 0 -- -- 79
2019-08-23 00:00:00 25.2 9 Noroeste 25 Nordeste 0 -- -- 78